Lewek Fpso 1 — 3EJK2 — position and weather

sailwx.info

Track history (hours):
 
Tides and Currents Weather Stations Pressure Air Temp Water Temp Dewpoint Dewpoint Depression Visibility Wind Speed Wind Dir Waves Ship Positions

Lewek Fpso 1

Last reported at 2017-Oct-22 06:44 UTC. Time now 2017-Oct-23 02:39 UTC.
Position N 36°35' E 012°47'.

Length 90 m; draft 6.8 m.

Type: Cargo ship. MMSI: 371193000.

Date/timePositionNaut miles runAvg speedWind from/ knotsBaromVisibWave heightAir tempDewpointWater temp
2017-Oct-22 06:44N 36°35' E 012°47'311.0
2017-Oct-22 06:29N 36°33' E 012°50'610.8
2017-Oct-22 05:54N 36°29' E 012°56'411.0
2017-Oct-22 05:30N 36°27' E 013°01'611.0
2017-Oct-22 04:59N 36°24' E 013°07'511.2
2017-Oct-22 04:30N 36°21' E 013°12'611.0
2017-Oct-22 03:59N 36°17' E 013°18'610.9
2017-Oct-22 03:25N 36°14' E 013°24'410.5
2017-Oct-22 03:00N 36°11' E 013°29'510.2
2017-Oct-22 02:30N 36°08' E 013°34'610.5
2017-Oct-22 01:56N 36°04' E 013°40'510.5
2017-Oct-22 01:27N 36°01' E 013°45'510.6
2017-Oct-22 01:00N 35°59' E 013°50'510.6
2017-Oct-22 00:29N 35°56' E 013°55'510.5
2017-Oct-22 00:00N 35°53' E 014°00'510.5
2017-Oct-21 23:30N 35°50' E 014°06'510.4
2017-Oct-21 23:00N 35°47' E 014°11'510.5
2017-Oct-21 22:30N 35°44' E 014°16'510.6
2017-Oct-21 22:00N 35°41' E 014°22'510.4
2017-Oct-21 21:30N 35°39' E 014°28'510.6
2017-Oct-21 21:00N 35°37' E 014°34'610.5
2017-Oct-21 20:24N 35°35' E 014°41'1410.5
2017-Oct-21 19:01N 35°31' E 014°58'  
Track history (hours):
 
Tides and Currents Weather Stations Pressure Air Temp Water Temp Dewpoint Dewpoint Depression Visibility Wind Speed Wind Dir Waves Ship Positions

Lewek Fpso 1

Last reported at 2017-Oct-22 06:44 UTC. Time now 2017-Oct-23 02:39 UTC.
Position N 36°35' E 012°47'.

Length 90 m; draft 6.8 m.

Type: Cargo ship. MMSI: 371193000.

Date/timePositionNaut miles runAvg speedWind from/ knotsBaromVisibWave heightAir tempDewpointWater temp
2017-Oct-22 06:44N 36°35' E 012°47'311.0
2017-Oct-22 06:29N 36°33' E 012°50'610.8
2017-Oct-22 05:54N 36°29' E 012°56'411.0
2017-Oct-22 05:30N 36°27' E 013°01'611.0
2017-Oct-22 04:59N 36°24' E 013°07'511.2
2017-Oct-22 04:30N 36°21' E 013°12'611.0
2017-Oct-22 03:59N 36°17' E 013°18'610.9
2017-Oct-22 03:25N 36°14' E 013°24'410.5
2017-Oct-22 03:00N 36°11' E 013°29'510.2
2017-Oct-22 02:30N 36°08' E 013°34'610.5
2017-Oct-22 01:56N 36°04' E 013°40'510.5
2017-Oct-22 01:27N 36°01' E 013°45'510.6
2017-Oct-22 01:00N 35°59' E 013°50'510.6
2017-Oct-22 00:29N 35°56' E 013°55'510.5
2017-Oct-22 00:00N 35°53' E 014°00'510.5
2017-Oct-21 23:30N 35°50' E 014°06'510.4
2017-Oct-21 23:00N 35°47' E 014°11'510.5
2017-Oct-21 22:30N 35°44' E 014°16'510.6
2017-Oct-21 22:00N 35°41' E 014°22'510.4
2017-Oct-21 21:30N 35°39' E 014°28'510.6
2017-Oct-21 21:00N 35°37' E 014°34'610.5
2017-Oct-21 20:24N 35°35' E 014°41'1410.5
2017-Oct-21 19:01N 35°31' E 014°58'  

Dump ship's entire track history